sensor_id;sensor_type;location;lat;lon;timestamp;P1;durP1;ratioP1;P2;durP2;ratioP2
703;SDS011;335;48.694;9.120;2024-01-06T00:02:25;2.77;;;2.57;;
703;SDS011;335;48.694;9.120;2024-01-06T00:05:10;3.63;;;3.10;;
703;SDS011;335;48.694;9.120;2024-01-06T00:07:57;2.50;;;2.40;;
703;SDS011;335;48.694;9.120;2024-01-06T00:10:43;2.90;;;2.70;;
703;SDS011;335;48.694;9.120;2024-01-06T00:13:28;4.00;;;2.77;;
703;SDS011;335;48.694;9.120;2024-01-06T00:16:16;2.13;;;2.03;;
703;SDS011;335;48.694;9.120;2024-01-06T00:19:01;2.40;;;2.30;;
703;SDS011;335;48.694;9.120;2024-01-06T00:21:47;2.80;;;2.60;;
703;SDS011;335;48.694;9.120;2024-01-06T00:24:32;3.27;;;2.20;;
703;SDS011;335;48.694;9.120;2024-01-06T00:27:18;2.50;;;2.30;;
703;SDS011;335;48.694;9.120;2024-01-06T00:30:03;3.03;;;2.73;;
703;SDS011;335;48.694;9.120;2024-01-06T00:32:49;3.07;;;2.87;;
703;SDS011;335;48.694;9.120;2024-01-06T00:35:34;2.57;;;2.47;;
703;SDS011;335;48.694;9.120;2024-01-06T00:38:20;4.07;;;2.00;;
703;SDS011;335;48.694;9.120;2024-01-06T00:41:05;2.42;;;2.22;;
703;SDS011;335;48.694;9.120;2024-01-06T00:43:50;2.50;;;2.40;;
703;SDS011;335;48.694;9.120;2024-01-06T00:46:36;3.00;;;2.90;;
703;SDS011;335;48.694;9.120;2024-01-06T00:49:21;2.53;;;2.33;;
703;SDS011;335;48.694;9.120;2024-01-06T00:52:06;2.53;;;2.33;;
703;SDS011;335;48.694;9.120;2024-01-06T00:54:52;3.45;;;2.83;;
703;SDS011;335;48.694;9.120;2024-01-06T00:57:37;2.00;;;1.90;;
703;SDS011;335;48.694;9.120;2024-01-06T01:00:23;2.53;;;2.30;;
703;SDS011;335;48.694;9.120;2024-01-06T01:03:08;2.10;;;2.00;;
703;SDS011;335;48.694;9.120;2024-01-06T01:05:53;2.40;;;2.27;;
703;SDS011;335;48.694;9.120;2024-01-06T01:08:39;2.90;;;2.80;;
703;SDS011;335;48.694;9.120;2024-01-06T01:11:24;2.40;;;2.20;;
703;SDS011;335;48.694;9.120;2024-01-06T01:14:09;2.53;;;2.43;;
703;SDS011;335;48.694;9.120;2024-01-06T01:16:55;3.28;;;3.00;;
703;SDS011;335;48.694;9.120;2024-01-06T01:19:40;3.30;;;3.10;;
703;SDS011;335;48.694;9.120;2024-01-06T01:22:25;2.70;;;2.57;;
703;SDS011;335;48.694;9.120;2024-01-06T01:25:11;3.40;;;2.85;;
703;SDS011;335;48.694;9.120;2024-01-06T01:27:58;3.13;;;2.92;;
703;SDS011;335;48.694;9.120;2024-01-06T01:30:43;4.55;;;3.58;;
703;SDS011;335;48.694;9.120;2024-01-06T01:33:28;2.77;;;2.60;;
703;SDS011;335;48.694;9.120;2024-01-06T01:36:14;2.60;;;2.40;;
703;SDS011;335;48.694;9.120;2024-01-06T01:38:59;2.43;;;2.33;;
703;SDS011;335;48.694;9.120;2024-01-06T01:41:44;2.70;;;2.50;;
703;SDS011;335;48.694;9.120;2024-01-06T01:44:29;2.72;;;2.53;;
703;SDS011;335;48.694;9.120;2024-01-06T01:47:15;2.33;;;2.20;;
703;SDS011;335;48.694;9.120;2024-01-06T01:50:03;2.10;;;2.00;;
703;SDS011;335;48.694;9.120;2024-01-06T01:52:49;2.42;;;2.20;;
703;SDS011;335;48.694;9.120;2024-01-06T01:55:34;1.85;;;1.75;;
703;SDS011;335;48.694;9.120;2024-01-06T01:58:20;2.30;;;2.20;;
703;SDS011;335;48.694;9.120;2024-01-06T02:01:05;2.20;;;2.00;;
703;SDS011;335;48.694;9.120;2024-01-06T02:03:50;2.33;;;2.13;;
703;SDS011;335;48.694;9.120;2024-01-06T02:06:36;2.13;;;2.00;;
703;SDS011;335;48.694;9.120;2024-01-06T02:09:21;2.17;;;1.97;;
703;SDS011;335;48.694;9.120;2024-01-06T02:12:11;3.35;;;3.08;;
703;SDS011;335;48.694;9.120;2024-01-06T02:14:57;2.30;;;2.03;;
703;SDS011;335;48.694;9.120;2024-01-06T02:17:42;2.58;;;2.38;;
703;SDS011;335;48.694;9.120;2024-01-06T02:20:28;2.95;;;2.65;;
703;SDS011;335;48.694;9.120;2024-01-06T02:23:15;2.50;;;2.30;;
703;SDS011;335;48.694;9.120;2024-01-06T02:26:01;4.40;;;2.92;;
703;SDS011;335;48.694;9.120;2024-01-06T02:28:47;2.58;;;2.40;;
703;SDS011;335;48.694;9.120;2024-01-06T02:31:34;3.40;;;2.58;;
703;SDS011;335;48.694;9.120;2024-01-06T02:34:19;4.20;;;2.20;;
703;SDS011;335;48.694;9.120;2024-01-06T02:37:05;3.00;;;2.67;;
703;SDS011;335;48.694;9.120;2024-01-06T02:39:51;3.00;;;2.78;;
703;SDS011;335;48.694;9.120;2024-01-06T02:42:38;3.95;;;2.53;;
703;SDS011;335;48.694;9.120;2024-01-06T02:45:23;5.05;;;2.38;;
703;SDS011;335;48.694;9.120;2024-01-06T02:48:08;3.42;;;2.90;;
703;SDS011;335;48.694;9.120;2024-01-06T02:50:54;2.75;;;2.22;;
703;SDS011;335;48.694;9.120;2024-01-06T02:53:39;2.25;;;1.80;;
703;SDS011;335;48.694;9.120;2024-01-06T02:56:24;3.85;;;1.90;;
703;SDS011;335;48.694;9.120;2024-01-06T02:59:11;3.10;;;1.90;;
703;SDS011;335;48.694;9.120;2024-01-06T03:01:56;2.70;;;1.67;;
703;SDS011;335;48.694;9.120;2024-01-06T03:04:41;1.80;;;1.70;;
703;SDS011;335;48.694;9.120;2024-01-06T03:07:27;2.30;;;1.80;;
703;SDS011;335;48.694;9.120;2024-01-06T03:10:12;1.85;;;1.75;;
703;SDS011;335;48.694;9.120;2024-01-06T03:12:58;2.20;;;2.10;;
703;SDS011;335;48.694;9.120;2024-01-06T03:15:43;4.28;;;1.80;;
703;SDS011;335;48.694;9.120;2024-01-06T03:18:28;1.85;;;1.75;;
703;SDS011;335;48.694;9.120;2024-01-06T03:21:17;3.50;;;1.70;;
703;SDS011;335;48.694;9.120;2024-01-06T03:24:03;3.25;;;2.10;;
703;SDS011;335;48.694;9.120;2024-01-06T03:26:49;1.77;;;1.38;;
703;SDS011;335;48.694;9.120;2024-01-06T03:29:35;1.38;;;1.33;;
703;SDS011;335;48.694;9.120;2024-01-06T03:32:21;3.20;;;1.88;;
703;SDS011;335;48.694;9.120;2024-01-06T03:35:06;2.47;;;1.30;;
703;SDS011;335;48.694;9.120;2024-01-06T03:37:52;3.55;;;1.50;;
703;SDS011;335;48.694;9.120;2024-01-06T03:40:37;1.90;;;1.80;;
703;SDS011;335;48.694;9.120;2024-01-06T03:43:22;1.42;;;1.33;;
703;SDS011;335;48.694;9.120;2024-01-06T03:46:08;2.13;;;1.30;;
703;SDS011;335;48.694;9.120;2024-01-06T03:48:53;1.60;;;1.50;;
703;SDS011;335;48.694;9.120;2024-01-06T03:51:39;1.70;;;1.60;;
703;SDS011;335;48.694;9.120;2024-01-06T03:54:24;2.35;;;1.65;;
703;SDS011;335;48.694;9.120;2024-01-06T03:57:09;2.05;;;1.95;;
703;SDS011;335;48.694;9.120;2024-01-06T03:59:54;2.20;;;1.98;;
703;SDS011;335;48.694;9.120;2024-01-06T04:02:40;2.40;;;1.80;;
703;SDS011;335;48.694;9.120;2024-01-06T04:05:25;2.15;;;1.58;;
703;SDS011;335;48.694;9.120;2024-01-06T04:08:10;2.90;;;1.92;;
703;SDS011;335;48.694;9.120;2024-01-06T04:10:56;2.55;;;1.52;;
703;SDS011;335;48.694;9.120;2024-01-06T04:13:41;1.95;;;1.40;;
703;SDS011;335;48.694;9.120;2024-01-06T04:16:26;1.60;;;1.60;;
703;SDS011;335;48.694;9.120;2024-01-06T04:19:12;2.78;;;1.48;;
703;SDS011;335;48.694;9.120;2024-01-06T04:21:59;2.08;;;1.40;;
703;SDS011;335;48.694;9.120;2024-01-06T04:24:44;2.83;;;1.67;;
703;SDS011;335;48.694;9.120;2024-01-06T04:27:30;1.88;;;1.70;;
703;SDS011;335;48.694;9.120;2024-01-06T04:30:16;2.13;;;2.00;;
703;SDS011;335;48.694;9.120;2024-01-06T04:33:02;1.83;;;1.73;;
703;SDS011;335;48.694;9.120;2024-01-06T04:35:47;2.97;;;1.50;;
703;SDS011;335;48.694;9.120;2024-01-06T04:38:33;2.55;;;1.90;;
703;SDS011;335;48.694;9.120;2024-01-06T04:41:18;1.75;;;1.30;;
703;SDS011;335;48.694;9.120;2024-01-06T04:44:04;3.65;;;1.60;;
703;SDS011;335;48.694;9.120;2024-01-06T04:46:49;1.88;;;1.77;;
703;SDS011;335;48.694;9.120;2024-01-06T04:49:34;2.65;;;1.85;;
703;SDS011;335;48.694;9.120;2024-01-06T04:52:20;1.45;;;1.45;;
703;SDS011;335;48.694;9.120;2024-01-06T04:55:05;1.58;;;1.48;;
703;SDS011;335;48.694;9.120;2024-01-06T04:57:51;1.98;;;1.80;;
703;SDS011;335;48.694;9.120;2024-01-06T05:00:36;1.63;;;1.52;;
703;SDS011;335;48.694;9.120;2024-01-06T05:03:21;4.93;;;2.22;;
703;SDS011;335;48.694;9.120;2024-01-06T05:06:07;2.88;;;1.40;;
703;SDS011;335;48.694;9.120;2024-01-06T05:08:52;2.40;;;1.45;;
703;SDS011;335;48.694;9.120;2024-01-06T05:11:37;1.42;;;1.38;;
703;SDS011;335;48.694;9.120;2024-01-06T05:14:23;2.35;;;1.65;;
703;SDS011;335;48.694;9.120;2024-01-06T05:17:08;3.00;;;1.60;;
703;SDS011;335;48.694;9.120;2024-01-06T05:19:54;2.75;;;1.42;;
703;SDS011;335;48.694;9.120;2024-01-06T05:22:39;3.17;;;1.58;;
703;SDS011;335;48.694;9.120;2024-01-06T05:25:25;3.17;;;1.52;;
703;SDS011;335;48.694;9.120;2024-01-06T05:28:10;4.97;;;2.15;;
703;SDS011;335;48.694;9.120;2024-01-06T05:30:56;2.90;;;1.48;;
703;SDS011;335;48.694;9.120;2024-01-06T05:33:42;1.90;;;1.80;;
703;SDS011;335;48.694;9.120;2024-01-06T05:36:27;2.13;;;1.77;;
703;SDS011;335;48.694;9.120;2024-01-06T05:39:12;2.25;;;1.55;;
703;SDS011;335;48.694;9.120;2024-01-06T05:41:58;3.35;;;1.40;;
703;SDS011;335;48.694;9.120;2024-01-06T05:44:43;2.65;;;1.70;;
703;SDS011;335;48.694;9.120;2024-01-06T05:47:29;1.90;;;1.80;;
703;SDS011;335;48.694;9.120;2024-01-06T05:50:15;1.20;;;1.17;;
703;SDS011;335;48.694;9.120;2024-01-06T05:53:01;1.67;;;1.58;;
703;SDS011;335;48.694;9.120;2024-01-06T05:55:46;1.90;;;1.63;;
703;SDS011;335;48.694;9.120;2024-01-06T05:58:32;2.65;;;1.80;;
703;SDS011;335;48.694;9.120;2024-01-06T06:01:17;2.22;;;2.10;;
703;SDS011;335;48.694;9.120;2024-01-06T06:04:02;1.90;;;1.60;;
703;SDS011;335;48.694;9.120;2024-01-06T06:06:48;2.25;;;1.77;;
703;SDS011;335;48.694;9.120;2024-01-06T06:09:33;3.83;;;2.00;;
703;SDS011;335;48.694;9.120;2024-01-06T06:12:19;2.38;;;2.00;;
703;SDS011;335;48.694;9.120;2024-01-06T06:15:05;3.08;;;1.80;;
703;SDS011;335;48.694;9.120;2024-01-06T06:17:51;3.05;;;2.10;;
703;SDS011;335;48.694;9.120;2024-01-06T06:20:36;2.10;;;1.80;;
703;SDS011;335;48.694;9.120;2024-01-06T06:23:22;5.22;;;2.40;;
703;SDS011;335;48.694;9.120;2024-01-06T06:26:07;2.30;;;2.08;;
703;SDS011;335;48.694;9.120;2024-01-06T06:28:53;2.15;;;2.05;;
703;SDS011;335;48.694;9.120;2024-01-06T06:31:38;1.92;;;1.83;;
703;SDS011;335;48.694;9.120;2024-01-06T06:34:24;2.33;;;1.90;;
703;SDS011;335;48.694;9.120;2024-01-06T06:37:09;2.97;;;2.80;;
703;SDS011;335;48.694;9.120;2024-01-06T06:39:54;2.72;;;2.47;;
703;SDS011;335;48.694;9.120;2024-01-06T06:42:40;2.65;;;1.70;;
703;SDS011;335;48.694;9.120;2024-01-06T06:45:25;3.38;;;2.50;;
703;SDS011;335;48.694;9.120;2024-01-06T06:48:10;3.17;;;2.00;;
703;SDS011;335;48.694;9.120;2024-01-06T06:50:56;1.75;;;1.75;;
703;SDS011;335;48.694;9.120;2024-01-06T06:53:41;3.72;;;2.17;;
703;SDS011;335;48.694;9.120;2024-01-06T06:56:27;2.40;;;2.30;;
703;SDS011;335;48.694;9.120;2024-01-06T06:59:12;3.22;;;2.92;;
703;SDS011;335;48.694;9.120;2024-01-06T07:01:58;2.90;;;1.60;;
703;SDS011;335;48.694;9.120;2024-01-06T07:04:43;2.63;;;1.98;;
703;SDS011;335;48.694;9.120;2024-01-06T07:07:29;2.28;;;2.05;;
703;SDS011;335;48.694;9.120;2024-01-06T07:10:14;1.80;;;1.70;;
703;SDS011;335;48.694;9.120;2024-01-06T07:12:59;1.83;;;1.73;;
703;SDS011;335;48.694;9.120;2024-01-06T07:15:47;1.83;;;1.50;;
703;SDS011;335;48.694;9.120;2024-01-06T07:18:32;1.60;;;1.50;;
703;SDS011;335;48.694;9.120;2024-01-06T07:21:18;1.85;;;1.65;;
703;SDS011;335;48.694;9.120;2024-01-06T07:24:03;1.33;;;1.33;;
703;SDS011;335;48.694;9.120;2024-01-06T07:26:49;1.40;;;1.30;;
703;SDS011;335;48.694;9.120;2024-01-06T07:29:34;1.50;;;1.40;;
703;SDS011;335;48.694;9.120;2024-01-06T07:32:19;2.78;;;1.40;;
703;SDS011;335;48.694;9.120;2024-01-06T07:35:05;1.30;;;1.20;;
703;SDS011;335;48.694;9.120;2024-01-06T07:37:50;1.13;;;1.05;;
703;SDS011;335;48.694;9.120;2024-01-06T07:40:36;2.85;;;1.27;;
703;SDS011;335;48.694;9.120;2024-01-06T07:43:22;1.20;;;1.10;;
703;SDS011;335;48.694;9.120;2024-01-06T07:46:07;2.55;;;1.70;;
703;SDS011;335;48.694;9.120;2024-01-06T07:48:54;1.60;;;1.50;;
703;SDS011;335;48.694;9.120;2024-01-06T07:51:39;1.98;;;1.27;;
703;SDS011;335;48.694;9.120;2024-01-06T07:54:25;2.38;;;1.17;;
703;SDS011;335;48.694;9.120;2024-01-06T07:57:10;1.10;;;1.10;;
703;SDS011;335;48.694;9.120;2024-01-06T07:59:56;1.05;;;1.00;;
703;SDS011;335;48.694;9.120;2024-01-06T08:02:42;1.25;;;1.15;;
703;SDS011;335;48.694;9.120;2024-01-06T08:05:27;1.27;;;1.25;;
703;SDS011;335;48.694;9.120;2024-01-06T08:08:12;1.05;;;1.02;;
703;SDS011;335;48.694;9.120;2024-01-06T08:11:01;2.05;;;1.85;;
703;SDS011;335;48.694;9.120;2024-01-06T08:13:48;1.83;;;1.73;;
703;SDS011;335;48.694;9.120;2024-01-06T08:16:33;1.42;;;1.38;;
703;SDS011;335;48.694;9.120;2024-01-06T08:19:18;1.45;;;1.35;;
703;SDS011;335;48.694;9.120;2024-01-06T08:22:04;2.78;;;1.50;;
703;SDS011;335;48.694;9.120;2024-01-06T08:24:52;1.20;;;1.20;;
703;SDS011;335;48.694;9.120;2024-01-06T08:27:37;1.10;;;1.10;;
703;SDS011;335;48.694;9.120;2024-01-06T08:30:23;1.63;;;1.53;;
703;SDS011;335;48.694;9.120;2024-01-06T08:33:08;5.43;;;3.30;;
703;SDS011;335;48.694;9.120;2024-01-06T08:35:54;10.00;;;6.40;;
703;SDS011;335;48.694;9.120;2024-01-06T08:38:40;3.23;;;2.80;;
703;SDS011;335;48.694;9.120;2024-01-06T08:41:25;1.57;;;1.40;;
703;SDS011;335;48.694;9.120;2024-01-06T08:44:11;3.13;;;1.60;;
703;SDS011;335;48.694;9.120;2024-01-06T08:46:56;1.98;;;1.88;;
703;SDS011;335;48.694;9.120;2024-01-06T08:49:41;3.90;;;1.73;;
703;SDS011;335;48.694;9.120;2024-01-06T08:52:27;1.60;;;1.47;;
703;SDS011;335;48.694;9.120;2024-01-06T08:55:12;1.60;;;1.50;;
703;SDS011;335;48.694;9.120;2024-01-06T08:57:57;3.43;;;1.40;;
703;SDS011;335;48.694;9.120;2024-01-06T09:00:43;2.10;;;1.70;;
703;SDS011;335;48.694;9.120;2024-01-06T09:03:28;1.70;;;1.50;;
703;SDS011;335;48.694;9.120;2024-01-06T09:06:14;1.83;;;1.37;;
703;SDS011;335;48.694;9.120;2024-01-06T09:08:59;5.40;;;2.63;;
703;SDS011;335;48.694;9.120;2024-01-06T09:11:45;2.03;;;1.00;;
703;SDS011;335;48.694;9.120;2024-01-06T09:14:31;4.78;;;1.55;;
703;SDS011;335;48.694;9.120;2024-01-06T09:17:16;1.35;;;1.25;;
703;SDS011;335;48.694;9.120;2024-01-06T09:20:02;1.23;;;1.10;;
703;SDS011;335;48.694;9.120;2024-01-06T09:22:48;1.33;;;1.23;;
703;SDS011;335;48.694;9.120;2024-01-06T09:25:34;2.40;;;1.10;;
703;SDS011;335;48.694;9.120;2024-01-06T09:28:19;2.20;;;1.17;;
703;SDS011;335;48.694;9.120;2024-01-06T09:31:06;2.93;;;1.50;;
703;SDS011;335;48.694;9.120;2024-01-06T09:33:51;2.60;;;1.13;;
703;SDS011;335;48.694;9.120;2024-01-06T09:36:37;1.40;;;1.40;;
703;SDS011;335;48.694;9.120;2024-01-06T09:39:22;1.50;;;1.40;;
703;SDS011;335;48.694;9.120;2024-01-06T09:42:07;1.43;;;0.97;;
703;SDS011;335;48.694;9.120;2024-01-06T09:44:53;1.30;;;1.20;;
703;SDS011;335;48.694;9.120;2024-01-06T09:47:39;1.20;;;1.20;;
703;SDS011;335;48.694;9.120;2024-01-06T09:50:25;1.60;;;1.10;;
703;SDS011;335;48.694;9.120;2024-01-06T09:53:11;1.17;;;1.00;;
703;SDS011;335;48.694;9.120;2024-01-06T09:55:57;1.13;;;1.03;;
703;SDS011;335;48.694;9.120;2024-01-06T09:58:43;2.40;;;1.23;;
703;SDS011;335;48.694;9.120;2024-01-06T10:01:29;1.27;;;1.10;;
703;SDS011;335;48.694;9.120;2024-01-06T10:04:14;0.93;;;0.90;;
703;SDS011;335;48.694;9.120;2024-01-06T10:07:00;0.80;;;0.80;;
703;SDS011;335;48.694;9.120;2024-01-06T10:09:48;1.97;;;0.83;;
703;SDS011;335;48.694;9.120;2024-01-06T10:12:33;1.10;;;1.10;;
703;SDS011;335;48.694;9.120;2024-01-06T10:15:18;0.93;;;0.80;;
703;SDS011;335;48.694;9.120;2024-01-06T10:18:05;0.93;;;0.93;;
703;SDS011;335;48.694;9.120;2024-01-06T10:20:50;1.10;;;1.10;;
703;SDS011;335;48.694;9.120;2024-01-06T10:23:36;1.03;;;0.93;;
703;SDS011;335;48.694;9.120;2024-01-06T10:26:21;1.30;;;1.30;;
703;SDS011;335;48.694;9.120;2024-01-06T10:29:07;0.90;;;0.90;;
703;SDS011;335;48.694;9.120;2024-01-06T10:31:53;1.00;;;1.00;;
703;SDS011;335;48.694;9.120;2024-01-06T10:34:38;1.10;;;1.00;;
703;SDS011;335;48.694;9.120;2024-01-06T10:37:24;0.80;;;0.80;;
703;SDS011;335;48.694;9.120;2024-01-06T10:40:10;1.30;;;1.20;;
703;SDS011;335;48.694;9.120;2024-01-06T10:42:57;1.30;;;1.30;;
703;SDS011;335;48.694;9.120;2024-01-06T10:45:47;1.30;;;1.30;;
703;SDS011;335;48.694;9.120;2024-01-06T10:48:34;0.80;;;0.80;;
703;SDS011;335;48.694;9.120;2024-01-06T10:51:20;0.80;;;0.80;;
703;SDS011;335;48.694;9.120;2024-01-06T10:54:07;1.73;;;1.00;;
703;SDS011;335;48.694;9.120;2024-01-06T10:56:54;0.90;;;0.90;;
703;SDS011;335;48.694;9.120;2024-01-06T10:59:41;0.63;;;0.63;;
703;SDS011;335;48.694;9.120;2024-01-06T11:02:27;0.97;;;0.97;;
703;SDS011;335;48.694;9.120;2024-01-06T11:05:13;0.40;;;0.40;;
703;SDS011;335;48.694;9.120;2024-01-06T11:07:58;0.50;;;0.50;;
703;SDS011;335;48.694;9.120;2024-01-06T11:10:48;0.70;;;0.63;;
703;SDS011;335;48.694;9.120;2024-01-06T11:13:34;0.83;;;0.70;;
703;SDS011;335;48.694;9.120;2024-01-06T11:16:35;0.77;;;0.60;;
703;SDS011;335;48.694;9.120;2024-01-06T11:22:20;0.60;;;0.60;;
703;SDS011;335;48.694;9.120;2024-01-06T11:25:13;1.00;;;0.60;;
703;SDS011;335;48.694;9.120;2024-01-06T11:28:00;0.40;;;0.40;;
703;SDS011;335;48.694;9.120;2024-01-06T11:31:05;1.70;;;0.57;;
703;SDS011;335;48.694;9.120;2024-01-06T11:33:54;0.57;;;0.57;;
703;SDS011;335;48.694;9.120;2024-01-06T11:36:39;0.50;;;0.50;;
703;SDS011;335;48.694;9.120;2024-01-06T11:39:34;0.50;;;0.50;;
703;SDS011;335;48.694;9.120;2024-01-06T11:42:20;0.80;;;0.80;;
703;SDS011;335;48.694;9.120;2024-01-06T11:45:06;0.90;;;0.73;;
703;SDS011;335;48.694;9.120;2024-01-06T11:47:54;0.40;;;0.40;;
703;SDS011;335;48.694;9.120;2024-01-06T11:50:41;0.60;;;0.60;;
703;SDS011;335;48.694;9.120;2024-01-06T11:53:27;0.53;;;0.53;;
703;SDS011;335;48.694;9.120;2024-01-06T11:56:14;0.57;;;0.57;;
703;SDS011;335;48.694;9.120;2024-01-06T11:59:00;0.60;;;0.60;;
703;SDS011;335;48.694;9.120;2024-01-06T12:01:49;1.00;;;0.70;;
703;SDS011;335;48.694;9.120;2024-01-06T12:04:34;0.40;;;0.40;;
703;SDS011;335;48.694;9.120;2024-01-06T12:07:20;0.50;;;0.50;;
703;SDS011;335;48.694;9.120;2024-01-06T12:10:07;0.70;;;0.70;;
703;SDS011;335;48.694;9.120;2024-01-06T12:15:47;0.70;;;0.70;;
703;SDS011;335;48.694;9.120;2024-01-06T12:18:32;0.53;;;0.53;;
703;SDS011;335;48.694;9.120;2024-01-06T12:21:19;0.30;;;0.30;;
703;SDS011;335;48.694;9.120;2024-01-06T12:24:17;0.80;;;0.80;;
703;SDS011;335;48.694;9.120;2024-01-06T12:27:07;0.50;;;0.50;;
703;SDS011;335;48.694;9.120;2024-01-06T12:29:54;0.30;;;0.30;;
703;SDS011;335;48.694;9.120;2024-01-06T12:32:40;0.53;;;0.50;;
703;SDS011;335;48.694;9.120;2024-01-06T12:35:25;0.50;;;0.50;;
703;SDS011;335;48.694;9.120;2024-01-06T12:38:10;0.77;;;0.77;;
703;SDS011;335;48.694;9.120;2024-01-06T12:40:56;0.50;;;0.50;;
703;SDS011;335;48.694;9.120;2024-01-06T12:43:41;0.80;;;0.70;;
703;SDS011;335;48.694;9.120;2024-01-06T12:46:27;0.70;;;0.70;;
703;SDS011;335;48.694;9.120;2024-01-06T12:49:12;0.43;;;0.43;;
703;SDS011;335;48.694;9.120;2024-01-06T12:51:58;0.70;;;0.53;;
703;SDS011;335;48.694;9.120;2024-01-06T12:54:43;0.70;;;0.70;;
703;SDS011;335;48.694;9.120;2024-01-06T12:57:28;1.20;;;1.20;;
703;SDS011;335;48.694;9.120;2024-01-06T13:00:14;1.40;;;1.30;;
703;SDS011;335;48.694;9.120;2024-01-06T13:03:00;0.93;;;0.93;;
703;SDS011;335;48.694;9.120;2024-01-06T13:05:48;1.10;;;1.00;;
703;SDS011;335;48.694;9.120;2024-01-06T13:08:34;0.70;;;0.70;;
703;SDS011;335;48.694;9.120;2024-01-06T13:11:19;0.60;;;0.60;;
703;SDS011;335;48.694;9.120;2024-01-06T13:14:05;0.90;;;0.90;;
703;SDS011;335;48.694;9.120;2024-01-06T13:16:50;0.90;;;0.90;;
703;SDS011;335;48.694;9.120;2024-01-06T13:19:35;1.10;;;1.00;;
703;SDS011;335;48.694;9.120;2024-01-06T13:22:21;1.73;;;1.70;;
703;SDS011;335;48.694;9.120;2024-01-06T13:25:07;1.10;;;1.10;;
703;SDS011;335;48.694;9.120;2024-01-06T13:27:53;1.00;;;0.90;;
703;SDS011;335;48.694;9.120;2024-01-06T13:30:39;0.90;;;0.90;;
703;SDS011;335;48.694;9.120;2024-01-06T13:33:25;1.00;;;1.00;;
703;SDS011;335;48.694;9.120;2024-01-06T13:36:10;1.47;;;1.47;;
703;SDS011;335;48.694;9.120;2024-01-06T13:38:55;1.23;;;1.13;;
703;SDS011;335;48.694;9.120;2024-01-06T13:41:41;1.20;;;1.20;;
703;SDS011;335;48.694;9.120;2024-01-06T13:44:26;1.60;;;1.60;;
703;SDS011;335;48.694;9.120;2024-01-06T13:47:11;1.80;;;1.80;;
703;SDS011;335;48.694;9.120;2024-01-06T13:49:57;5.13;;;4.83;;
703;SDS011;335;48.694;9.120;2024-01-06T13:52:43;3.60;;;3.40;;
703;SDS011;335;48.694;9.120;2024-01-06T13:55:30;4.30;;;4.00;;
703;SDS011;335;48.694;9.120;2024-01-06T13:58:15;4.03;;;3.77;;
703;SDS011;335;48.694;9.120;2024-01-06T14:01:01;2.80;;;2.70;;
703;SDS011;335;48.694;9.120;2024-01-06T14:03:47;2.07;;;1.97;;
703;SDS011;335;48.694;9.120;2024-01-06T14:06:32;3.77;;;3.57;;
703;SDS011;335;48.694;9.120;2024-01-06T14:09:18;2.53;;;2.33;;
703;SDS011;335;48.694;9.120;2024-01-06T14:12:04;2.77;;;2.57;;
703;SDS011;335;48.694;9.120;2024-01-06T14:14:50;3.93;;;3.73;;
703;SDS011;335;48.694;9.120;2024-01-06T14:17:35;3.30;;;3.10;;
703;SDS011;335;48.694;9.120;2024-01-06T14:20:21;2.47;;;2.37;;
703;SDS011;335;48.694;9.120;2024-01-06T14:23:06;3.40;;;3.30;;
703;SDS011;335;48.694;9.120;2024-01-06T14:25:51;3.37;;;3.20;;
703;SDS011;335;48.694;9.120;2024-01-06T14:28:37;5.43;;;2.57;;
703;SDS011;335;48.694;9.120;2024-01-06T14:31:22;2.03;;;1.93;;
703;SDS011;335;48.694;9.120;2024-01-06T14:34:07;3.00;;;2.80;;
703;SDS011;335;48.694;9.120;2024-01-06T14:36:53;2.30;;;2.20;;
703;SDS011;335;48.694;9.120;2024-01-06T14:39:40;2.10;;;2.07;;
703;SDS011;335;48.694;9.120;2024-01-06T14:42:26;3.30;;;3.10;;
703;SDS011;335;48.694;9.120;2024-01-06T14:45:11;2.70;;;2.60;;
703;SDS011;335;48.694;9.120;2024-01-06T14:47:57;3.50;;;3.30;;
703;SDS011;335;48.694;9.120;2024-01-06T14:50:42;3.05;;;2.85;;
703;SDS011;335;48.694;9.120;2024-01-06T14:53:27;3.50;;;3.30;;
703;SDS011;335;48.694;9.120;2024-01-06T14:56:13;3.33;;;3.23;;
703;SDS011;335;48.694;9.120;2024-01-06T14:58:59;4.03;;;3.83;;
703;SDS011;335;48.694;9.120;2024-01-06T15:01:44;4.00;;;3.80;;
703;SDS011;335;48.694;9.120;2024-01-06T15:04:30;4.05;;;3.85;;
703;SDS011;335;48.694;9.120;2024-01-06T15:07:15;5.50;;;5.00;;
703;SDS011;335;48.694;9.120;2024-01-06T15:10:01;4.30;;;4.00;;
703;SDS011;335;48.694;9.120;2024-01-06T15:12:50;3.75;;;3.45;;
703;SDS011;335;48.694;9.120;2024-01-06T15:15:36;3.27;;;3.17;;
703;SDS011;335;48.694;9.120;2024-01-06T15:18:21;3.60;;;3.40;;
703;SDS011;335;48.694;9.120;2024-01-06T15:21:07;4.13;;;3.83;;
703;SDS011;335;48.694;9.120;2024-01-06T15:23:52;4.33;;;3.93;;
703;SDS011;335;48.694;9.120;2024-01-06T15:26:40;5.17;;;4.87;;
703;SDS011;335;48.694;9.120;2024-01-06T15:29:26;4.90;;;4.50;;
703;SDS011;335;48.694;9.120;2024-01-06T15:32:11;4.90;;;4.60;;
703;SDS011;335;48.694;9.120;2024-01-06T15:34:56;5.70;;;4.97;;
703;SDS011;335;48.694;9.120;2024-01-06T15:37:42;5.13;;;4.82;;
703;SDS011;335;48.694;9.120;2024-01-06T15:40:27;5.47;;;5.07;;
703;SDS011;335;48.694;9.120;2024-01-06T15:43:12;5.70;;;5.30;;
703;SDS011;335;48.694;9.120;2024-01-06T15:45:58;7.00;;;6.40;;
703;SDS011;335;48.694;9.120;2024-01-06T15:48:43;7.17;;;6.57;;
703;SDS011;335;48.694;9.120;2024-01-06T15:51:29;6.30;;;5.80;;
703;SDS011;335;48.694;9.120;2024-01-06T15:54:15;7.15;;;6.57;;
703;SDS011;335;48.694;9.120;2024-01-06T15:57:01;6.07;;;5.67;;
703;SDS011;335;48.694;9.120;2024-01-06T15:59:48;6.47;;;5.97;;
703;SDS011;335;48.694;9.120;2024-01-06T16:02:33;6.80;;;6.20;;
703;SDS011;335;48.694;9.120;2024-01-06T16:05:19;6.50;;;6.00;;
703;SDS011;335;48.694;9.120;2024-01-06T16:08:04;7.43;;;6.82;;
703;SDS011;335;48.694;9.120;2024-01-06T16:10:50;6.80;;;6.30;;
703;SDS011;335;48.694;9.120;2024-01-06T16:13:35;7.37;;;6.63;;
703;SDS011;335;48.694;9.120;2024-01-06T16:16:20;6.90;;;6.30;;
703;SDS011;335;48.694;9.120;2024-01-06T16:19:06;9.40;;;7.43;;
703;SDS011;335;48.694;9.120;2024-01-06T16:21:52;7.30;;;6.60;;
703;SDS011;335;48.694;9.120;2024-01-06T16:24:39;8.73;;;7.93;;
703;SDS011;335;48.694;9.120;2024-01-06T16:27:24;9.40;;;8.60;;
703;SDS011;335;48.694;9.120;2024-01-06T16:30:10;8.23;;;7.53;;
703;SDS011;335;48.694;9.120;2024-01-06T16:32:55;8.70;;;7.97;;
703;SDS011;335;48.694;9.120;2024-01-06T16:35:41;9.02;;;8.23;;
703;SDS011;335;48.694;9.120;2024-01-06T16:38:27;8.10;;;7.35;;
703;SDS011;335;48.694;9.120;2024-01-06T16:41:13;8.57;;;7.72;;
703;SDS011;335;48.694;9.120;2024-01-06T16:43:58;8.23;;;7.40;;
703;SDS011;335;48.694;9.120;2024-01-06T16:46:44;9.60;;;8.80;;
703;SDS011;335;48.694;9.120;2024-01-06T16:49:29;8.77;;;7.97;;
703;SDS011;335;48.694;9.120;2024-01-06T16:52:16;9.85;;;9.05;;
703;SDS011;335;48.694;9.120;2024-01-06T16:55:02;8.65;;;7.88;;
703;SDS011;335;48.694;9.120;2024-01-06T16:57:49;9.80;;;8.90;;
703;SDS011;335;48.694;9.120;2024-01-06T17:00:34;9.65;;;8.80;;
703;SDS011;335;48.694;9.120;2024-01-06T17:03:19;10.73;;;9.73;;
703;SDS011;335;48.694;9.120;2024-01-06T17:06:05;12.33;;;10.13;;
703;SDS011;335;48.694;9.120;2024-01-06T17:08:52;9.13;;;8.23;;
703;SDS011;335;48.694;9.120;2024-01-06T17:11:37;10.43;;;9.35;;
703;SDS011;335;48.694;9.120;2024-01-06T17:14:22;10.55;;;9.55;;
703;SDS011;335;48.694;9.120;2024-01-06T17:17:08;9.98;;;8.98;;
703;SDS011;335;48.694;9.120;2024-01-06T17:19:53;10.02;;;8.98;;
703;SDS011;335;48.694;9.120;2024-01-06T17:22:38;9.63;;;8.63;;
703;SDS011;335;48.694;9.120;2024-01-06T17:25:24;9.20;;;8.40;;
703;SDS011;335;48.694;9.120;2024-01-06T17:28:10;11.07;;;10.03;;
703;SDS011;335;48.694;9.120;2024-01-06T17:30:56;11.17;;;10.03;;
703;SDS011;335;48.694;9.120;2024-01-06T17:33:41;11.43;;;10.33;;
703;SDS011;335;48.694;9.120;2024-01-06T17:36:26;10.30;;;9.40;;
703;SDS011;335;48.694;9.120;2024-01-06T17:39:12;9.20;;;7.90;;
703;SDS011;335;48.694;9.120;2024-01-06T17:41:57;9.00;;;8.10;;
703;SDS011;335;48.694;9.120;2024-01-06T17:44:42;8.73;;;7.93;;
703;SDS011;335;48.694;9.120;2024-01-06T17:47:29;9.67;;;8.80;;
703;SDS011;335;48.694;9.120;2024-01-06T17:50:15;9.60;;;8.38;;